Original METAR for KLFK:
072053Z 18008KT 10SM CLR 37/19 A3003 RMK AO2 SLP164 T03720189 58027

Wind: 180° at 8 knots
Visibility: 10 statute miles
Sky conditions: Clear
Temperature: 98.6°F
Dew Point: 66.2°F
Altimeter: 30.03

Remarks:
-- METAR generated by an automated station with a precipitation discriminator.
-- Sea level pressure: 1,016.4 millibars.
-- Precise hourly temperature and dew point: 37.2°C / 18.9°C

NOTE:
This METAR was retrieved from metars.com at:
http://www.metars.com/stations/KLFK.html


Cessnas2Oshkosh, C2O, CessnaBaseCamp and The Pirep | Testimonials | Donations | FAQ | Privacy | Contact Us
are trademarks of Cessnas 2 Oshkosh, Inc. - Dothan, AL Copyright © 2008 - 2022 Cessnas 2 Oshkosh, Inc. All rights reserved.